Time;durP1;ratioP1;P1;durP2;ratioP2;P2;SDS_P1;SDS_P2;PMS_P1;PMS_P2;Temp;Humidity;BMP_temperature;BMP_pressure;BME280_temperature;BME280_humidity;BME280_pressure;Samples;Min_cycle;Max_cycle;Signal;HPM_P1;HPM_P2
2022/09/27 00:06:36;;;;;;;25.00;15.70;;;;;;;13.89;100.00;99041.19;657727;1277;139702;-85
2022/09/27 00:21:44;;;;;;;25.10;15.70;;;;;;;13.93;100.00;99029.59;658075;1277;140001;-85
2022/09/27 00:36:48;;;;;;;29.40;17.40;;;;;;;13.99;100.00;99015.08;656755;1277;139928;-85
2022/09/27 00:52:01;;;;;;;26.70;17.70;;;;;;;13.95;100.00;99001.88;657178;1278;140300;-84
2022/09/27 01:07:04;;;;;;;27.50;18.20;;;;;;;13.76;100.00;98995.48;657753;1277;139300;-85
2022/09/27 01:22:14;;;;;;;33.70;22.70;;;;;;;13.71;100.00;98988.45;658038;1279;139366;-85
2022/09/27 01:37:33;;;;;;;35.20;22.30;;;;;;;13.64;100.00;98980.03;658344;1277;139784;-86
2022/09/27 01:53:01;;;;;;;40.40;23.10;;;;;;;13.66;100.00;98972.06;658243;1277;139875;-86
2022/09/27 02:08:17;;;;;;;34.70;23.10;;;;;;;13.65;100.00;98965.61;657976;1277;139295;-84
2022/09/27 02:23:45;;;;;;;40.50;24.50;;;;;;;13.60;100.00;98962.23;658725;1277;139503;-84
2022/09/27 02:38:48;;;;;;;37.50;24.40;;;;;;;13.49;100.00;98956.25;665452;1277;139386;-85
2022/09/27 02:54:07;;;;;;;35.10;23.30;;;;;;;13.21;100.00;98946.91;658663;1277;140107;-83
2022/09/27 03:09:47;;;;;;;42.90;24.50;;;;;;;12.94;100.00;98940.56;657797;1277;139878;-84
2022/09/27 03:24:51;;;;;;;45.90;26.60;;;;;;;12.78;100.00;98931.05;657728;1277;139411;-84
2022/09/27 03:39:54;;;;;;;56.40;31.40;;;;;;;12.73;100.00;98913.77;658359;1277;139836;-85
2022/09/27 03:54:58;;;;;;;67.50;34.00;;;;;;;12.49;100.00;98898.71;658327;1277;139600;-85
2022/09/27 04:10:05;;;;;;;46.90;26.10;;;;;;;12.22;100.00;98894.00;658939;1277;139594;-85
2022/09/27 04:25:11;;;;;;;40.00;22.10;;;;;;;12.05;100.00;98888.57;658520;1278;139332;-86
2022/09/27 04:40:16;;;;;;;43.00;23.90;;;;;;;11.95;100.00;98893.05;659855;1278;139694;-84
2022/09/27 04:55:21;;;;;;;38.70;21.20;;;;;;;11.81;100.00;98899.33;660316;1277;139248;-85
2022/09/27 05:10:25;;;;;;;34.40;19.30;;;;;;;11.69;100.00;98900.56;661006;1277;139588;-85
2022/09/27 05:25:30;;;;;;;46.70;24.80;;;;;;;11.66;100.00;98888.80;660117;1277;139500;-84
2022/09/27 05:40:33;;;;;;;43.60;24.30;;;;;;;11.82;100.00;98874.44;658106;1277;139307;-85
2022/09/27 05:55:47;;;;;;;67.00;33.40;;;;;;;12.07;100.00;98868.26;658470;1277;139408;-85
2022/09/27 06:11:01;;;;;;;64.70;40.20;;;;;;;12.31;100.00;98880.15;657905;1277;139375;-85
2022/09/27 06:26:06;;;;;;;51.90;30.50;;;;;;;12.33;100.00;98876.02;658342;1277;140315;-86
2022/09/27 06:41:22;;;;;;;61.70;32.70;;;;;;;12.47;100.00;98871.05;658403;1277;140079;-86
2022/09/27 06:56:39;;;;;;;77.40;36.50;;;;;;;12.60;100.00;98881.33;658803;1277;139947;-84
2022/09/27 07:11:44;;;;;;;69.60;35.50;;;;;;;12.77;100.00;98876.13;657988;1277;139340;-84
2022/09/27 07:26:48;;;;;;;72.00;36.10;;;;;;;13.10;100.00;98885.21;657776;1277;139597;-84
2022/09/27 07:41:54;;;;;;;64.30;35.40;;;;;;;13.61;100.00;98894.11;659880;1277;140352;-85
2022/09/27 07:56:57;;;;;;;64.20;35.50;;;;;;;13.60;100.00;98878.94;660605;1277;139997;-84
2022/09/27 08:12:02;;;;;;;73.10;36.40;;;;;;;13.89;100.00;98875.36;658950;1277;140141;-84
2022/09/27 08:27:06;;;;;;;146.10;59.30;;;;;;;14.37;100.00;98873.44;657756;1277;139849;-86
2022/09/27 08:42:42;;;;;;;58.60;32.70;;;;;;;14.69;100.00;98865.08;656706;1277;139992;-86
2022/09/27 08:57:55;;;;;;;53.70;31.20;;;;;;;14.93;100.00;98865.73;657312;1277;140011;-85
2022/09/27 09:13:11;;;;;;;64.50;35.70;;;;;;;15.36;100.00;98863.97;657962;1277;139774;-84
2022/09/27 09:28:26;;;;;;;64.30;36.20;;;;;;;15.75;100.00;98863.02;656679;1280;139458;-85
2022/09/27 09:43:34;;;;;;;48.80;31.10;;;;;;;16.62;100.00;98863.44;658161;1277;140141;-84
2022/09/27 09:58:46;;;;;;;57.90;31.50;;;;;;;16.23;100.00;98869.48;658840;1277;139818;-84
2022/09/27 10:13:56;;;;;;;38.30;24.70;;;;;;;16.45;100.00;98861.23;657455;1277;139301;-85
2022/09/27 10:29:22;;;;;;;30.80;21.00;;;;;;;16.80;100.00;98855.83;657334;1277;139305;-86
2022/09/27 10:44:29;;;;;;;38.30;24.20;;;;;;;16.82;100.00;98840.17;656805;1278;140523;-84
2022/09/27 10:59:40;;;;;;;50.00;26.30;;;;;;;17.73;99.87;98816.91;657523;1278;140925;-85
2022/09/27 11:14:51;;;;;;;31.30;21.50;;;;;;;18.00;97.32;98800.67;660000;1277;139677;-84
2022/09/27 11:30:21;;;;;;;36.20;22.90;;;;;;;18.09;94.21;98795.38;656146;1278;1096433;-86
2022/09/27 11:45:53;;;;;;;56.80;28.10;;;;;;;18.08;92.96;98786.77;656690;1279;140463;-86
2022/09/27 12:01:47;;;;;;;40.60;24.40;;;;;;;18.25;90.97;98778.91;658121;1277;139565;-84
2022/09/27 12:16:55;;;;;;;34.60;22.80;;;;;;;18.31;89.48;98762.80;658468;1277;140672;-87
2022/09/27 12:32:03;;;;;;;36.90;24.40;;;;;;;18.69;87.35;98755.41;658143;1280;139221;-89
2022/09/27 12:47:32;;;;;;;39.50;26.80;;;;;;;19.59;83.69;98747.30;659439;1277;139320;-90
2022/09/27 13:02:56;;;;;;;42.40;32.40;;;;;;;19.37;82.66;98745.55;663018;1277;140091;-89
2022/09/27 13:18:35;;;;;;;34.70;22.20;;;;;;;19.38;81.14;98730.55;658500;1277;139630;-89
2022/09/27 13:33:53;;;;;;;36.50;22.70;;;;;;;19.03;81.88;98704.91;657977;1277;140056;-88
2022/09/27 13:49:15;;;;;;;57.80;30.80;;;;;;;19.41;81.96;98683.71;657669;1277;139158;-88
2022/09/27 14:04:50;;;;;;;62.20;31.40;;;;;;;20.96;78.37;98669.27;658180;1277;140780;-88
2022/09/27 14:19:54;;;;;;;29.30;19.70;;;;;;;24.11;69.14;98663.30;658353;1277;140329;-89
2022/09/27 14:50:37;;;;;;;26.20;17.10;;;;;;;25.38;60.34;98637.97;663810;1277;139846;-87
2022/09/27 15:05:42;;;;;;;32.50;19.80;;;;;;;23.99;61.72;98640.84;658078;1277;138457;-90
2022/09/27 15:20:52;;;;;;;101.80;58.50;;;;;;;21.83;65.54;98639.20;659397;1277;139135;-87
2022/09/27 15:36:02;;;;;;;50.50;27.60;;;;;;;20.76;69.03;98631.45;658596;1277;138834;-87
2022/09/27 15:51:37;;;;;;;45.60;26.40;;;;;;;19.83;71.36;98622.97;661658;1277;139848;-87
2022/09/27 16:06:42;;;;;;;56.30;27.60;;;;;;;18.39;74.83;98617.35;661835;1277;139189;-86
2022/09/27 16:21:47;;;;;;;30.10;19.50;;;;;;;17.60;79.18;98609.09;657446;1277;139930;-87
2022/09/27 16:36:51;;;;;;;34.60;23.00;;;;;;;17.06;82.20;98603.02;656951;1277;139706;-87
2022/09/27 16:52:01;;;;;;;34.00;21.70;;;;;;;16.60;86.63;98603.86;657159;1277;140154;-86
2022/09/27 17:07:06;;;;;;;64.00;35.50;;;;;;;16.29;89.37;98609.12;658308;1277;140607;-87
2022/09/27 17:22:11;;;;;;;47.50;27.60;;;;;;;16.08;90.79;98601.75;657802;1277;140906;-86
2022/09/27 17:37:17;;;;;;;43.70;28.30;;;;;;;15.80;93.14;98605.32;658194;1277;140892;-87
2022/09/27 17:52:24;;;;;;;44.20;29.00;;;;;;;15.59;94.43;98616.54;657175;1277;141645;-87
2022/09/27 18:07:32;;;;;;;26.30;19.90;;;;;;;15.44;96.22;98623.28;658433;1277;141116;-85
2022/09/27 18:22:37;;;;;;;48.50;26.40;;;;;;;15.42;97.19;98630.69;657952;1277;142307;-86
2022/09/27 18:37:43;;;;;;;31.10;19.60;;;;;;;15.44;98.09;98634.02;657746;1277;141265;-86
2022/09/27 18:52:51;;;;;;;47.80;25.20;;;;;;;15.43;98.83;98630.52;661047;1277;140974;-88
2022/09/27 19:07:55;;;;;;;29.80;19.70;;;;;;;15.31;99.35;98632.55;660904;1277;140078;-86
2022/09/27 19:23:02;;;;;;;28.20;16.90;;;;;;;15.23;99.98;98632.52;659400;1277;141077;-84
2022/09/27 19:38:07;;;;;;;23.70;15.20;;;;;;;15.16;100.00;98633.14;662121;1277;141474;-86
2022/09/27 19:53:11;;;;;;;24.20;18.30;;;;;;;15.07;100.00;98634.12;658472;1277;141177;-87
2022/09/27 20:08:14;;;;;;;21.10;14.00;;;;;;;15.01;100.00;98635.88;659225;1277;140538;-87
2022/09/27 20:23:19;;;;;;;24.30;16.40;;;;;;;14.99;100.00;98633.85;658654;1277;140577;-87
2022/09/27 20:38:22;;;;;;;25.20;16.90;;;;;;;14.99;100.00;98634.73;657670;1277;139969;-87
2022/09/27 20:53:26;;;;;;;24.60;16.80;;;;;;;14.88;100.00;98641.60;657492;1277;140660;-87
2022/09/27 21:08:34;;;;;;;26.10;16.70;;;;;;;14.76;100.00;98644.70;657494;1277;140068;-86
2022/09/27 21:23:40;;;;;;;25.20;17.10;;;;;;;14.72;100.00;98623.85;657607;1277;140396;-88
2022/09/27 21:38:46;;;;;;;26.90;17.90;;;;;;;14.65;100.00;98619.66;657492;1277;139848;-87
2022/09/27 21:53:54;;;;;;;20.70;15.70;;;;;;;14.57;100.00;98626.04;657070;1278;140869;-88
2022/09/27 22:09:00;;;;;;;26.20;18.30;;;;;;;14.53;100.00;98614.96;657373;1280;141263;-87
2022/09/27 22:24:21;;;;;;;25.80;17.80;;;;;;;14.57;100.00;98591.74;656874;1278;140559;-86
2022/09/27 22:39:25;;;;;;;45.40;21.60;;;;;;;14.50;100.00;98586.55;657073;1277;139965;-86
2022/09/27 22:54:28;;;;;;;27.10;18.80;;;;;;;14.52;100.00;98567.35;657582;1277;141250;-86
2022/09/27 23:09:31;;;;;;;25.70;18.10;;;;;;;14.61;100.00;98558.92;657679;1277;140563;-86
2022/09/27 23:24:34;;;;;;;27.80;18.80;;;;;;;14.60;100.00;98548.61;656974;1277;140365;-90
2022/09/27 23:39:38;;;;;;;23.00;16.80;;;;;;;14.42;100.00;98542.86;657061;1277;1400194;-88
2022/09/27 23:54:41;;;;;;;27.30;17.80;;;;;;;14.28;100.00;98534.95;658693;1277;141104;-88
